sensor_id;sensor_type;location;lat;lon;timestamp;P1;durP1;ratioP1;P2;durP2;ratioP2
13706;SDS011;6925;47.816;13.072;2022-09-01T00:01:25;4.72;;;3.55;;
13706;SDS011;6925;47.816;13.072;2022-09-01T00:03:53;4.50;;;3.10;;
13706;SDS011;6925;47.816;13.072;2022-09-01T00:06:29;6.75;;;3.97;;
13706;SDS011;6925;47.816;13.072;2022-09-01T00:08:59;5.38;;;3.70;;
13706;SDS011;6925;47.816;13.072;2022-09-01T00:11:29;6.00;;;4.10;;
13706;SDS011;6925;47.816;13.072;2022-09-01T00:13:57;7.10;;;3.75;;
13706;SDS011;6925;47.816;13.072;2022-09-01T00:16:25;5.10;;;3.70;;
13706;SDS011;6925;47.816;13.072;2022-09-01T00:18:55;6.25;;;3.78;;
13706;SDS011;6925;47.816;13.072;2022-09-01T00:21:24;6.35;;;3.78;;
13706;SDS011;6925;47.816;13.072;2022-09-01T00:23:54;5.53;;;3.15;;
13706;SDS011;6925;47.816;13.072;2022-09-01T00:26:21;4.60;;;3.30;;
13706;SDS011;6925;47.816;13.072;2022-09-01T00:28:49;4.55;;;2.97;;
13706;SDS011;6925;47.816;13.072;2022-09-01T00:31:17;5.57;;;3.72;;
13706;SDS011;6925;47.816;13.072;2022-09-01T00:33:45;5.97;;;3.65;;
13706;SDS011;6925;47.816;13.072;2022-09-01T00:36:14;6.85;;;3.35;;
13706;SDS011;6925;47.816;13.072;2022-09-01T00:38:42;4.93;;;3.30;;
13706;SDS011;6925;47.816;13.072;2022-09-01T00:41:12;8.30;;;3.78;;
13706;SDS011;6925;47.816;13.072;2022-09-01T00:43:41;5.22;;;2.92;;
13706;SDS011;6925;47.816;13.072;2022-09-01T00:46:13;4.85;;;3.50;;
13706;SDS011;6925;47.816;13.072;2022-09-01T00:48:42;5.25;;;3.90;;
13706;SDS011;6925;47.816;13.072;2022-09-01T00:51:10;6.55;;;3.97;;
13706;SDS011;6925;47.816;13.072;2022-09-01T00:53:39;5.65;;;3.30;;
13706;SDS011;6925;47.816;13.072;2022-09-01T00:56:12;5.15;;;3.78;;
13706;SDS011;6925;47.816;13.072;2022-09-01T00:58:41;5.97;;;3.88;;
13706;SDS011;6925;47.816;13.072;2022-09-01T01:01:09;6.65;;;3.20;;
13706;SDS011;6925;47.816;13.072;2022-09-01T01:03:49;6.18;;;3.80;;
13706;SDS011;6925;47.816;13.072;2022-09-01T01:06:40;7.20;;;3.85;;
13706;SDS011;6925;47.816;13.072;2022-09-01T01:09:14;6.55;;;3.95;;
13706;SDS011;6925;47.816;13.072;2022-09-01T01:11:43;7.55;;;4.20;;
13706;SDS011;6925;47.816;13.072;2022-09-01T01:14:12;5.97;;;4.05;;
13706;SDS011;6925;47.816;13.072;2022-09-01T01:16:42;5.78;;;4.30;;
13706;SDS011;6925;47.816;13.072;2022-09-01T01:19:13;7.20;;;4.75;;
13706;SDS011;6925;47.816;13.072;2022-09-01T01:22:01;6.25;;;4.07;;
13706;SDS011;6925;47.816;13.072;2022-09-01T01:24:49;6.50;;;4.25;;
13706;SDS011;6925;47.816;13.072;2022-09-01T01:27:17;5.10;;;3.67;;
13706;SDS011;6925;47.816;13.072;2022-09-01T01:29:45;6.68;;;4.47;;
13706;SDS011;6925;47.816;13.072;2022-09-01T01:32:14;6.03;;;4.03;;
13706;SDS011;6925;47.816;13.072;2022-09-01T01:34:42;8.95;;;5.10;;
13706;SDS011;6925;47.816;13.072;2022-09-01T01:37:11;7.53;;;4.45;;
13706;SDS011;6925;47.816;13.072;2022-09-01T01:39:40;6.45;;;4.50;;
13706;SDS011;6925;47.816;13.072;2022-09-01T01:42:11;8.35;;;4.75;;
13706;SDS011;6925;47.816;13.072;2022-09-01T01:44:38;7.32;;;5.00;;
13706;SDS011;6925;47.816;13.072;2022-09-01T01:47:07;6.82;;;5.38;;
13706;SDS011;6925;47.816;13.072;2022-09-01T01:49:38;7.45;;;4.88;;
13706;SDS011;6925;47.816;13.072;2022-09-01T01:52:08;7.45;;;4.40;;
13706;SDS011;6925;47.816;13.072;2022-09-01T01:54:39;7.55;;;5.05;;
13706;SDS011;6925;47.816;13.072;2022-09-01T01:57:11;8.38;;;4.70;;
13706;SDS011;6925;47.816;13.072;2022-09-01T01:59:41;8.20;;;4.93;;
13706;SDS011;6925;47.816;13.072;2022-09-01T02:02:08;6.55;;;4.30;;
13706;SDS011;6925;47.816;13.072;2022-09-01T02:04:37;7.68;;;4.85;;
13706;SDS011;6925;47.816;13.072;2022-09-01T02:07:07;8.20;;;5.38;;
13706;SDS011;6925;47.816;13.072;2022-09-01T02:09:36;6.95;;;4.53;;
13706;SDS011;6925;47.816;13.072;2022-09-01T02:12:08;8.45;;;5.10;;
13706;SDS011;6925;47.816;13.072;2022-09-01T02:14:37;8.38;;;5.10;;
13706;SDS011;6925;47.816;13.072;2022-09-01T02:17:04;7.00;;;4.65;;
13706;SDS011;6925;47.816;13.072;2022-09-01T02:19:32;7.15;;;5.18;;
13706;SDS011;6925;47.816;13.072;2022-09-01T02:22:04;8.07;;;5.22;;
13706;SDS011;6925;47.816;13.072;2022-09-01T02:24:35;7.88;;;5.28;;
13706;SDS011;6925;47.816;13.072;2022-09-01T02:27:02;8.25;;;5.68;;
13706;SDS011;6925;47.816;13.072;2022-09-01T02:29:30;7.18;;;5.72;;
13706;SDS011;6925;47.816;13.072;2022-09-01T02:31:59;6.70;;;5.28;;
13706;SDS011;6925;47.816;13.072;2022-09-01T02:34:26;6.95;;;4.50;;
13706;SDS011;6925;47.816;13.072;2022-09-01T02:36:56;7.10;;;5.00;;
13706;SDS011;6925;47.816;13.072;2022-09-01T02:39:41;6.93;;;4.60;;
13706;SDS011;6925;47.816;13.072;2022-09-01T02:42:10;6.82;;;4.78;;
13706;SDS011;6925;47.816;13.072;2022-09-01T02:44:39;10.10;;;5.72;;
13706;SDS011;6925;47.816;13.072;2022-09-01T02:47:09;7.53;;;5.00;;
13706;SDS011;6925;47.816;13.072;2022-09-01T02:49:36;9.55;;;6.10;;
13706;SDS011;6925;47.816;13.072;2022-09-01T02:52:04;8.73;;;5.85;;
13706;SDS011;6925;47.816;13.072;2022-09-01T02:54:32;9.10;;;6.07;;
13706;SDS011;6925;47.816;13.072;2022-09-01T02:57:00;8.13;;;5.70;;
13706;SDS011;6925;47.816;13.072;2022-09-01T02:59:28;9.40;;;7.30;;
13706;SDS011;6925;47.816;13.072;2022-09-01T03:01:56;9.32;;;6.07;;
13706;SDS011;6925;47.816;13.072;2022-09-01T03:04:25;9.80;;;6.25;;
13706;SDS011;6925;47.816;13.072;2022-09-01T03:06:58;10.07;;;6.18;;
13706;SDS011;6925;47.816;13.072;2022-09-01T03:09:26;8.73;;;6.68;;
13706;SDS011;6925;47.816;13.072;2022-09-01T03:11:53;10.02;;;6.70;;
13706;SDS011;6925;47.816;13.072;2022-09-01T03:14:24;9.93;;;6.90;;
13706;SDS011;6925;47.816;13.072;2022-09-01T03:16:54;9.77;;;6.43;;
13706;SDS011;6925;47.816;13.072;2022-09-01T03:19:21;9.80;;;6.85;;
13706;SDS011;6925;47.816;13.072;2022-09-01T03:21:50;10.57;;;7.00;;
13706;SDS011;6925;47.816;13.072;2022-09-01T03:24:17;8.07;;;5.80;;
13706;SDS011;6925;47.816;13.072;2022-09-01T03:26:46;11.23;;;6.93;;
13706;SDS011;6925;47.816;13.072;2022-09-01T03:29:15;9.70;;;6.20;;
13706;SDS011;6925;47.816;13.072;2022-09-01T03:31:43;8.20;;;6.32;;
13706;SDS011;6925;47.816;13.072;2022-09-01T03:34:12;8.65;;;5.93;;
13706;SDS011;6925;47.816;13.072;2022-09-01T03:36:40;10.40;;;5.30;;
13706;SDS011;6925;47.816;13.072;2022-09-01T03:39:15;13.00;;;6.95;;
13706;SDS011;6925;47.816;13.072;2022-09-01T03:41:43;8.68;;;6.18;;
13706;SDS011;6925;47.816;13.072;2022-09-01T03:44:13;8.75;;;5.90;;
13706;SDS011;6925;47.816;13.072;2022-09-01T03:46:41;8.27;;;6.07;;
13706;SDS011;6925;47.816;13.072;2022-09-01T03:49:09;8.45;;;6.72;;
13706;SDS011;6925;47.816;13.072;2022-09-01T03:51:39;10.35;;;6.32;;
13706;SDS011;6925;47.816;13.072;2022-09-01T03:54:08;8.30;;;5.90;;
13706;SDS011;6925;47.816;13.072;2022-09-01T03:56:38;9.00;;;6.28;;
13706;SDS011;6925;47.816;13.072;2022-09-01T03:59:06;10.45;;;5.85;;
13706;SDS011;6925;47.816;13.072;2022-09-01T04:01:40;15.18;;;6.47;;
13706;SDS011;6925;47.816;13.072;2022-09-01T04:04:09;9.80;;;7.03;;
13706;SDS011;6925;47.816;13.072;2022-09-01T04:06:39;9.93;;;6.30;;
13706;SDS011;6925;47.816;13.072;2022-09-01T04:09:07;10.00;;;5.88;;
13706;SDS011;6925;47.816;13.072;2022-09-01T04:11:35;9.00;;;5.68;;
13706;SDS011;6925;47.816;13.072;2022-09-01T04:14:05;10.25;;;6.13;;
13706;SDS011;6925;47.816;13.072;2022-09-01T04:16:33;8.55;;;6.35;;
13706;SDS011;6925;47.816;13.072;2022-09-01T04:19:19;8.57;;;6.22;;
13706;SDS011;6925;47.816;13.072;2022-09-01T04:21:51;9.98;;;7.00;;
13706;SDS011;6925;47.816;13.072;2022-09-01T04:24:20;10.30;;;7.60;;
13706;SDS011;6925;47.816;13.072;2022-09-01T04:26:51;9.25;;;7.32;;
13706;SDS011;6925;47.816;13.072;2022-09-01T04:29:19;9.02;;;6.30;;
13706;SDS011;6925;47.816;13.072;2022-09-01T04:31:51;11.88;;;7.10;;
13706;SDS011;6925;47.816;13.072;2022-09-01T04:34:22;9.82;;;6.90;;
13706;SDS011;6925;47.816;13.072;2022-09-01T04:36:51;11.00;;;7.03;;
13706;SDS011;6925;47.816;13.072;2022-09-01T04:39:19;10.25;;;7.03;;
13706;SDS011;6925;47.816;13.072;2022-09-01T04:41:47;10.05;;;7.03;;
13706;SDS011;6925;47.816;13.072;2022-09-01T04:44:17;12.77;;;8.07;;
13706;SDS011;6925;47.816;13.072;2022-09-01T04:46:45;9.40;;;6.88;;
13706;SDS011;6925;47.816;13.072;2022-09-01T04:49:15;11.82;;;6.88;;
13706;SDS011;6925;47.816;13.072;2022-09-01T04:51:46;9.60;;;7.00;;
13706;SDS011;6925;47.816;13.072;2022-09-01T04:54:16;11.70;;;8.23;;
13706;SDS011;6925;47.816;13.072;2022-09-01T04:56:44;11.02;;;6.63;;
13706;SDS011;6925;47.816;13.072;2022-09-01T04:59:15;9.48;;;6.90;;
13706;SDS011;6925;47.816;13.072;2022-09-01T05:01:51;10.05;;;7.20;;
13706;SDS011;6925;47.816;13.072;2022-09-01T05:04:25;9.68;;;7.07;;
13706;SDS011;6925;47.816;13.072;2022-09-01T05:07:04;10.27;;;7.07;;
13706;SDS011;6925;47.816;13.072;2022-09-01T05:09:33;9.73;;;7.03;;
13706;SDS011;6925;47.816;13.072;2022-09-01T05:12:02;10.13;;;7.70;;
13706;SDS011;6925;47.816;13.072;2022-09-01T05:14:41;9.60;;;7.53;;
13706;SDS011;6925;47.816;13.072;2022-09-01T05:17:11;9.65;;;6.63;;
13706;SDS011;6925;47.816;13.072;2022-09-01T05:19:42;9.85;;;7.10;;
13706;SDS011;6925;47.816;13.072;2022-09-01T05:22:11;11.07;;;7.45;;
13706;SDS011;6925;47.816;13.072;2022-09-01T05:24:45;10.75;;;6.63;;
13706;SDS011;6925;47.816;13.072;2022-09-01T05:27:16;12.18;;;8.73;;
13706;SDS011;6925;47.816;13.072;2022-09-01T05:29:58;9.85;;;6.85;;
13706;SDS011;6925;47.816;13.072;2022-09-01T05:32:32;9.32;;;6.72;;
13706;SDS011;6925;47.816;13.072;2022-09-01T05:35:04;9.20;;;6.15;;
13706;SDS011;6925;47.816;13.072;2022-09-01T05:37:34;9.40;;;6.93;;
13706;SDS011;6925;47.816;13.072;2022-09-01T05:40:04;8.02;;;6.47;;
13706;SDS011;6925;47.816;13.072;2022-09-01T05:42:34;11.35;;;7.53;;
13706;SDS011;6925;47.816;13.072;2022-09-01T05:45:07;10.70;;;7.85;;
13706;SDS011;6925;47.816;13.072;2022-09-01T05:47:36;9.55;;;6.90;;
13706;SDS011;6925;47.816;13.072;2022-09-01T05:50:04;11.05;;;8.10;;
13706;SDS011;6925;47.816;13.072;2022-09-01T05:52:33;11.95;;;7.53;;
13706;SDS011;6925;47.816;13.072;2022-09-01T05:55:04;12.63;;;8.52;;
13706;SDS011;6925;47.816;13.072;2022-09-01T05:57:33;12.77;;;7.35;;
13706;SDS011;6925;47.816;13.072;2022-09-01T06:00:01;11.70;;;8.40;;
13706;SDS011;6925;47.816;13.072;2022-09-01T06:02:37;10.85;;;8.63;;
13706;SDS011;6925;47.816;13.072;2022-09-01T06:05:07;12.02;;;8.15;;
13706;SDS011;6925;47.816;13.072;2022-09-01T06:07:40;12.45;;;8.68;;
13706;SDS011;6925;47.816;13.072;2022-09-01T06:10:08;13.70;;;8.85;;
13706;SDS011;6925;47.816;13.072;2022-09-01T06:12:37;10.85;;;8.50;;
13706;SDS011;6925;47.816;13.072;2022-09-01T06:15:04;13.82;;;8.70;;
13706;SDS011;6925;47.816;13.072;2022-09-01T06:17:39;13.00;;;8.32;;
13706;SDS011;6925;47.816;13.072;2022-09-01T06:20:08;12.75;;;9.13;;
13706;SDS011;6925;47.816;13.072;2022-09-01T06:22:36;13.07;;;9.30;;
13706;SDS011;6925;47.816;13.072;2022-09-01T06:25:05;12.32;;;9.02;;
13706;SDS011;6925;47.816;13.072;2022-09-01T06:27:33;12.18;;;8.65;;
13706;SDS011;6925;47.816;13.072;2022-09-01T06:30:08;17.50;;;8.07;;
13706;SDS011;6925;47.816;13.072;2022-09-01T06:32:39;11.35;;;8.75;;
13706;SDS011;6925;47.816;13.072;2022-09-01T06:35:08;12.63;;;8.93;;
13706;SDS011;6925;47.816;13.072;2022-09-01T06:37:37;10.98;;;8.15;;
13706;SDS011;6925;47.816;13.072;2022-09-01T06:40:09;12.32;;;8.77;;
13706;SDS011;6925;47.816;13.072;2022-09-01T06:42:41;12.82;;;9.25;;
13706;SDS011;6925;47.816;13.072;2022-09-01T06:45:11;12.18;;;8.25;;
13706;SDS011;6925;47.816;13.072;2022-09-01T06:47:41;11.07;;;8.52;;
13706;SDS011;6925;47.816;13.072;2022-09-01T06:50:10;12.13;;;8.88;;
13706;SDS011;6925;47.816;13.072;2022-09-01T06:52:39;11.45;;;8.05;;
13706;SDS011;6925;47.816;13.072;2022-09-01T06:55:08;12.82;;;9.07;;
13706;SDS011;6925;47.816;13.072;2022-09-01T06:57:36;13.13;;;8.73;;
13706;SDS011;6925;47.816;13.072;2022-09-01T07:00:25;11.70;;;8.27;;
13706;SDS011;6925;47.816;13.072;2022-09-01T07:03:01;11.95;;;8.13;;
13706;SDS011;6925;47.816;13.072;2022-09-01T11:22:36;3.03;;;1.73;;
13706;SDS011;6925;47.816;13.072;2022-09-01T13:32:45;2.83;;;1.30;;
13706;SDS011;6925;47.816;13.072;2022-09-01T13:35:14;5.15;;;1.20;;
13706;SDS011;6925;47.816;13.072;2022-09-01T13:37:43;3.13;;;1.30;;
13706;SDS011;6925;47.816;13.072;2022-09-01T13:40:11;3.03;;;0.98;;
13706;SDS011;6925;47.816;13.072;2022-09-01T13:42:41;2.95;;;1.40;;
13706;SDS011;6925;47.816;13.072;2022-09-01T13:45:09;2.60;;;1.20;;
13706;SDS011;6925;47.816;13.072;2022-09-01T13:47:39;3.50;;;1.20;;
13706;SDS011;6925;47.816;13.072;2022-09-01T13:50:08;4.28;;;1.17;;
13706;SDS011;6925;47.816;13.072;2022-09-01T13:52:37;2.72;;;1.13;;
13706;SDS011;6925;47.816;13.072;2022-09-01T13:55:06;3.30;;;1.15;;
13706;SDS011;6925;47.816;13.072;2022-09-01T13:57:36;2.50;;;1.17;;
13706;SDS011;6925;47.816;13.072;2022-09-01T14:00:04;1.83;;;0.90;;
13706;SDS011;6925;47.816;13.072;2022-09-01T14:02:34;3.30;;;1.15;;
13706;SDS011;6925;47.816;13.072;2022-09-01T14:05:04;2.08;;;0.98;;
13706;SDS011;6925;47.816;13.072;2022-09-01T14:07:32;2.20;;;1.20;;
13706;SDS011;6925;47.816;13.072;2022-09-01T14:10:00;3.20;;;1.27;;
13706;SDS011;6925;47.816;13.072;2022-09-01T14:12:27;3.33;;;1.13;;
13706;SDS011;6925;47.816;13.072;2022-09-01T14:14:56;3.58;;;1.20;;
13706;SDS011;6925;47.816;13.072;2022-09-01T14:17:24;2.25;;;1.20;;
13706;SDS011;6925;47.816;13.072;2022-09-01T14:19:51;2.28;;;1.10;;
13706;SDS011;6925;47.816;13.072;2022-09-01T14:22:21;3.13;;;1.10;;
13706;SDS011;6925;47.816;13.072;2022-09-01T14:24:48;2.53;;;1.13;;
13706;SDS011;6925;47.816;13.072;2022-09-01T14:27:16;1.85;;;1.00;;
13706;SDS011;6925;47.816;13.072;2022-09-01T14:29:47;2.25;;;1.13;;
13706;SDS011;6925;47.816;13.072;2022-09-01T14:32:18;2.05;;;1.02;;
13706;SDS011;6925;47.816;13.072;2022-09-01T14:34:47;3.50;;;1.13;;
13706;SDS011;6925;47.816;13.072;2022-09-01T14:37:15;1.58;;;0.80;;
13706;SDS011;6925;47.816;13.072;2022-09-01T14:39:44;4.00;;;1.20;;
13706;SDS011;6925;47.816;13.072;2022-09-01T14:42:15;2.65;;;1.17;;
13706;SDS011;6925;47.816;13.072;2022-09-01T14:44:43;2.58;;;1.13;;
13706;SDS011;6925;47.816;13.072;2022-09-01T14:47:11;2.03;;;0.90;;
13706;SDS011;6925;47.816;13.072;2022-09-01T14:49:43;2.53;;;1.20;;
13706;SDS011;6925;47.816;13.072;2022-09-01T14:52:10;3.42;;;1.00;;
13706;SDS011;6925;47.816;13.072;2022-09-01T14:54:39;2.78;;;1.20;;
13706;SDS011;6925;47.816;13.072;2022-09-01T14:57:14;2.85;;;1.05;;
13706;SDS011;6925;47.816;13.072;2022-09-01T14:59:41;2.05;;;0.90;;
13706;SDS011;6925;47.816;13.072;2022-09-01T15:02:08;2.20;;;1.10;;
13706;SDS011;6925;47.816;13.072;2022-09-01T15:04:36;3.85;;;1.27;;
13706;SDS011;6925;47.816;13.072;2022-09-01T15:07:10;2.70;;;1.10;;
13706;SDS011;6925;47.816;13.072;2022-09-01T15:09:37;2.72;;;1.02;;
13706;SDS011;6925;47.816;13.072;2022-09-01T15:12:07;2.30;;;1.02;;
13706;SDS011;6925;47.816;13.072;2022-09-01T15:14:36;2.13;;;1.08;;
13706;SDS011;6925;47.816;13.072;2022-09-01T15:17:07;2.75;;;0.95;;
13706;SDS011;6925;47.816;13.072;2022-09-01T15:25:18;2.20;;;0.90;;
13706;SDS011;6925;47.816;13.072;2022-09-01T15:27:49;2.15;;;1.00;;
13706;SDS011;6925;47.816;13.072;2022-09-01T15:30:19;1.85;;;0.98;;
13706;SDS011;6925;47.816;13.072;2022-09-01T15:32:47;2.55;;;1.15;;
13706;SDS011;6925;47.816;13.072;2022-09-01T15:35:18;2.53;;;1.25;;
13706;SDS011;6925;47.816;13.072;2022-09-01T15:37:46;3.67;;;1.10;;
13706;SDS011;6925;47.816;13.072;2022-09-01T15:40:14;2.03;;;0.95;;
13706;SDS011;6925;47.816;13.072;2022-09-01T15:42:42;2.75;;;0.90;;
13706;SDS011;6925;47.816;13.072;2022-09-01T15:45:11;2.90;;;1.20;;
13706;SDS011;6925;47.816;13.072;2022-09-01T15:47:42;2.75;;;1.10;;
13706;SDS011;6925;47.816;13.072;2022-09-01T15:50:11;2.42;;;1.10;;
13706;SDS011;6925;47.816;13.072;2022-09-01T15:52:45;2.55;;;1.10;;
13706;SDS011;6925;47.816;13.072;2022-09-01T15:55:17;2.95;;;1.05;;
13706;SDS011;6925;47.816;13.072;2022-09-01T15:57:46;1.75;;;0.95;;
13706;SDS011;6925;47.816;13.072;2022-09-01T16:00:14;7.38;;;1.42;;
13706;SDS011;6925;47.816;13.072;2022-09-01T16:02:46;2.10;;;1.02;;
13706;SDS011;6925;47.816;13.072;2022-09-01T16:05:13;2.33;;;0.98;;
13706;SDS011;6925;47.816;13.072;2022-09-01T16:07:42;3.60;;;1.42;;
13706;SDS011;6925;47.816;13.072;2022-09-01T16:10:18;3.83;;;1.17;;
13706;SDS011;6925;47.816;13.072;2022-09-01T16:12:46;3.25;;;1.25;;
13706;SDS011;6925;47.816;13.072;2022-09-01T16:15:16;4.88;;;1.30;;
13706;SDS011;6925;47.816;13.072;2022-09-01T16:20:58;2.30;;;1.10;;
13706;SDS011;6925;47.816;13.072;2022-09-01T16:23:37;3.28;;;1.40;;
13706;SDS011;6925;47.816;13.072;2022-09-01T16:26:07;4.57;;;1.27;;
13706;SDS011;6925;47.816;13.072;2022-09-01T16:28:35;2.78;;;1.13;;
13706;SDS011;6925;47.816;13.072;2022-09-01T16:31:05;3.25;;;1.25;;
13706;SDS011;6925;47.816;13.072;2022-09-01T16:33:38;6.07;;;1.42;;
13706;SDS011;6925;47.816;13.072;2022-09-01T16:36:16;2.95;;;1.23;;
13706;SDS011;6925;47.816;13.072;2022-09-01T16:38:56;3.53;;;1.23;;
13706;SDS011;6925;47.816;13.072;2022-09-01T16:41:34;4.18;;;1.30;;
13706;SDS011;6925;47.816;13.072;2022-09-01T16:44:10;2.08;;;1.08;;
13706;SDS011;6925;47.816;13.072;2022-09-01T16:46:50;3.80;;;1.27;;
13706;SDS011;6925;47.816;13.072;2022-09-01T16:49:32;4.38;;;1.25;;
13706;SDS011;6925;47.816;13.072;2022-09-01T16:52:06;3.60;;;1.20;;
13706;SDS011;6925;47.816;13.072;2022-09-01T16:54:43;3.28;;;1.30;;
13706;SDS011;6925;47.816;13.072;2022-09-01T16:57:22;3.78;;;1.20;;
13706;SDS011;6925;47.816;13.072;2022-09-01T16:59:58;3.50;;;1.40;;
13706;SDS011;6925;47.816;13.072;2022-09-01T17:02:33;2.75;;;1.25;;
13706;SDS011;6925;47.816;13.072;2022-09-01T17:05:11;3.45;;;1.17;;
13706;SDS011;6925;47.816;13.072;2022-09-01T17:07:46;3.72;;;1.10;;
13706;SDS011;6925;47.816;13.072;2022-09-01T17:10:21;3.25;;;1.20;;
13706;SDS011;6925;47.816;13.072;2022-09-01T17:13:04;2.88;;;1.20;;
13706;SDS011;6925;47.816;13.072;2022-09-01T17:15:41;3.15;;;1.20;;
13706;SDS011;6925;47.816;13.072;2022-09-01T17:18:13;3.15;;;1.27;;
13706;SDS011;6925;47.816;13.072;2022-09-01T17:20:48;2.67;;;1.30;;
13706;SDS011;6925;47.816;13.072;2022-09-01T17:23:21;6.32;;;1.40;;
13706;SDS011;6925;47.816;13.072;2022-09-01T17:25:54;5.30;;;1.35;;
13706;SDS011;6925;47.816;13.072;2022-09-01T17:28:26;3.45;;;1.60;;
13706;SDS011;6925;47.816;13.072;2022-09-01T17:31:02;2.70;;;1.25;;
13706;SDS011;6925;47.816;13.072;2022-09-01T17:33:41;2.40;;;1.20;;
13706;SDS011;6925;47.816;13.072;2022-09-01T17:36:27;3.03;;;1.20;;
13706;SDS011;6925;47.816;13.072;2022-09-01T17:39:07;3.25;;;1.23;;
13706;SDS011;6925;47.816;13.072;2022-09-01T17:41:43;3.75;;;1.33;;
13706;SDS011;6925;47.816;13.072;2022-09-01T17:44:18;3.65;;;1.15;;
13706;SDS011;6925;47.816;13.072;2022-09-01T17:46:55;3.05;;;1.00;;
13706;SDS011;6925;47.816;13.072;2022-09-01T17:49:31;3.30;;;1.42;;
13706;SDS011;6925;47.816;13.072;2022-09-01T17:52:07;2.88;;;1.30;;
13706;SDS011;6925;47.816;13.072;2022-09-01T17:54:42;2.45;;;1.30;;
13706;SDS011;6925;47.816;13.072;2022-09-01T17:57:16;2.72;;;1.25;;
13706;SDS011;6925;47.816;13.072;2022-09-01T17:59:52;2.70;;;1.30;;
13706;SDS011;6925;47.816;13.072;2022-09-01T18:02:35;3.97;;;1.55;;
13706;SDS011;6925;47.816;13.072;2022-09-01T18:05:16;3.00;;;1.30;;
13706;SDS011;6925;47.816;13.072;2022-09-01T18:07:54;5.00;;;1.17;;
13706;SDS011;6925;47.816;13.072;2022-09-01T18:10:31;3.53;;;1.10;;
13706;SDS011;6925;47.816;13.072;2022-09-01T18:13:04;2.80;;;1.30;;
13706;SDS011;6925;47.816;13.072;2022-09-01T18:15:39;4.40;;;1.17;;
13706;SDS011;6925;47.816;13.072;2022-09-01T18:18:19;3.05;;;1.10;;
13706;SDS011;6925;47.816;13.072;2022-09-01T18:21:43;3.00;;;1.50;;
13706;SDS011;6925;47.816;13.072;2022-09-01T18:24:38;3.28;;;1.23;;
13706;SDS011;6925;47.816;13.072;2022-09-01T18:27:13;2.90;;;1.58;;
13706;SDS011;6925;47.816;13.072;2022-09-01T18:29:42;4.60;;;1.25;;
13706;SDS011;6925;47.816;13.072;2022-09-01T18:32:15;8.77;;;1.60;;
13706;SDS011;6925;47.816;13.072;2022-09-01T18:35:04;2.85;;;1.83;;
13706;SDS011;6925;47.816;13.072;2022-09-01T18:37:55;3.45;;;1.08;;
13706;SDS011;6925;47.816;13.072;2022-09-01T18:40:37;3.30;;;1.60;;
13706;SDS011;6925;47.816;13.072;2022-09-01T18:43:39;3.35;;;1.30;;
13706;SDS011;6925;47.816;13.072;2022-09-01T18:46:12;2.45;;;1.17;;
13706;SDS011;6925;47.816;13.072;2022-09-01T18:48:54;3.47;;;1.65;;
13706;SDS011;6925;47.816;13.072;2022-09-01T18:51:34;8.35;;;1.67;;
13706;SDS011;6925;47.816;13.072;2022-09-01T18:54:12;3.13;;;1.50;;
13706;SDS011;6925;47.816;13.072;2022-09-01T18:56:46;4.05;;;1.60;;
13706;SDS011;6925;47.816;13.072;2022-09-01T19:01:58;3.30;;;1.30;;
13706;SDS011;6925;47.816;13.072;2022-09-01T19:04:31;3.00;;;1.20;;
13706;SDS011;6925;47.816;13.072;2022-09-01T19:07:07;3.58;;;1.30;;
13706;SDS011;6925;47.816;13.072;2022-09-01T19:09:48;3.40;;;1.10;;
13706;SDS011;6925;47.816;13.072;2022-09-01T19:12:23;3.40;;;1.20;;
13706;SDS011;6925;47.816;13.072;2022-09-01T19:15:02;6.10;;;1.20;;
13706;SDS011;6925;47.816;13.072;2022-09-01T19:17:39;3.50;;;1.40;;
13706;SDS011;6925;47.816;13.072;2022-09-01T19:20:28;3.40;;;1.20;;
13706;SDS011;6925;47.816;13.072;2022-09-01T19:23:02;4.75;;;1.58;;
13706;SDS011;6925;47.816;13.072;2022-09-01T19:25:33;4.38;;;1.60;;
13706;SDS011;6925;47.816;13.072;2022-09-01T19:28:08;3.22;;;1.58;;
13706;SDS011;6925;47.816;13.072;2022-09-01T19:30:41;2.72;;;1.33;;
13706;SDS011;6925;47.816;13.072;2022-09-01T19:33:13;3.20;;;1.50;;
13706;SDS011;6925;47.816;13.072;2022-09-01T19:35:42;3.58;;;2.03;;
13706;SDS011;6925;47.816;13.072;2022-09-01T19:38:15;4.15;;;1.70;;
13706;SDS011;6925;47.816;13.072;2022-09-01T19:40:45;4.07;;;1.40;;
13706;SDS011;6925;47.816;13.072;2022-09-01T19:43:19;3.60;;;1.90;;
13706;SDS011;6925;47.816;13.072;2022-09-01T19:46:01;4.20;;;1.60;;
13706;SDS011;6925;47.816;13.072;2022-09-01T19:48:47;2.80;;;1.50;;
13706;SDS011;6925;47.816;13.072;2022-09-01T19:51:19;5.03;;;1.30;;
13706;SDS011;6925;47.816;13.072;2022-09-01T19:53:54;4.95;;;1.67;;
13706;SDS011;6925;47.816;13.072;2022-09-01T19:56:30;4.53;;;1.67;;
13706;SDS011;6925;47.816;13.072;2022-09-01T19:59:13;2.47;;;1.42;;
13706;SDS011;6925;47.816;13.072;2022-09-01T20:01:47;4.38;;;1.80;;
13706;SDS011;6925;47.816;13.072;2022-09-01T20:04:28;5.28;;;1.55;;
13706;SDS011;6925;47.816;13.072;2022-09-01T20:07:32;4.63;;;2.40;;
13706;SDS011;6925;47.816;13.072;2022-09-01T20:10:14;3.80;;;1.63;;
13706;SDS011;6925;47.816;13.072;2022-09-01T20:13:33;3.00;;;1.35;;
13706;SDS011;6925;47.816;13.072;2022-09-01T20:16:25;3.60;;;1.73;;
13706;SDS011;6925;47.816;13.072;2022-09-01T20:19:03;3.33;;;1.40;;
13706;SDS011;6925;47.816;13.072;2022-09-01T20:21:36;2.78;;;1.52;;
13706;SDS011;6925;47.816;13.072;2022-09-01T20:24:34;2.75;;;1.35;;
13706;SDS011;6925;47.816;13.072;2022-09-01T20:27:14;3.10;;;1.50;;
13706;SDS011;6925;47.816;13.072;2022-09-01T20:29:51;2.10;;;1.10;;
13706;SDS011;6925;47.816;13.072;2022-09-01T20:32:27;5.15;;;1.45;;
13706;SDS011;6925;47.816;13.072;2022-09-01T20:35:03;4.80;;;2.05;;
13706;SDS011;6925;47.816;13.072;2022-09-01T20:37:37;3.78;;;2.10;;
13706;SDS011;6925;47.816;13.072;2022-09-01T20:40:09;3.33;;;1.52;;
13706;SDS011;6925;47.816;13.072;2022-09-01T20:42:41;4.15;;;1.50;;
13706;SDS011;6925;47.816;13.072;2022-09-01T20:45:15;3.67;;;1.88;;
13706;SDS011;6925;47.816;13.072;2022-09-01T20:47:46;4.25;;;1.85;;
13706;SDS011;6925;47.816;13.072;2022-09-01T20:50:19;3.33;;;1.50;;
13706;SDS011;6925;47.816;13.072;2022-09-01T21:06:36;2.80;;;1.40;;
13706;SDS011;6925;47.816;13.072;2022-09-01T21:13:19;5.18;;;1.60;;
13706;SDS011;6925;47.816;13.072;2022-09-01T21:21:17;5.00;;;1.60;;
13706;SDS011;6925;47.816;13.072;2022-09-01T21:23:55;4.97;;;1.60;;
13706;SDS011;6925;47.816;13.072;2022-09-01T21:36:44;3.22;;;1.50;;
13706;SDS011;6925;47.816;13.072;2022-09-01T21:39:13;3.30;;;1.77;;
13706;SDS011;6925;47.816;13.072;2022-09-01T21:41:40;3.88;;;1.60;;
13706;SDS011;6925;47.816;13.072;2022-09-01T21:44:08;3.90;;;1.67;;
13706;SDS011;6925;47.816;13.072;2022-09-01T21:46:38;3.47;;;1.75;;
13706;SDS011;6925;47.816;13.072;2022-09-01T21:49:07;3.65;;;1.52;;
13706;SDS011;6925;47.816;13.072;2022-09-01T21:51:38;3.65;;;1.67;;
13706;SDS011;6925;47.816;13.072;2022-09-01T21:54:06;4.03;;;1.80;;
13706;SDS011;6925;47.816;13.072;2022-09-01T21:56:35;3.50;;;1.50;;
13706;SDS011;6925;47.816;13.072;2022-09-01T21:59:02;2.50;;;1.30;;
13706;SDS011;6925;47.816;13.072;2022-09-01T22:01:32;3.08;;;1.80;;
13706;SDS011;6925;47.816;13.072;2022-09-01T22:04:00;3.13;;;1.63;;
13706;SDS011;6925;47.816;13.072;2022-09-01T22:06:29;3.83;;;1.75;;
13706;SDS011;6925;47.816;13.072;2022-09-01T22:08:58;3.50;;;1.55;;
13706;SDS011;6925;47.816;13.072;2022-09-01T22:11:26;4.40;;;1.63;;
13706;SDS011;6925;47.816;13.072;2022-09-01T22:13:56;3.05;;;1.63;;
13706;SDS011;6925;47.816;13.072;2022-09-01T22:16:25;3.80;;;1.85;;
13706;SDS011;6925;47.816;13.072;2022-09-01T22:18:52;2.50;;;1.45;;
13706;SDS011;6925;47.816;13.072;2022-09-01T22:21:20;3.15;;;1.80;;
13706;SDS011;6925;47.816;13.072;2022-09-01T22:23:47;5.78;;;1.73;;
13706;SDS011;6925;47.816;13.072;2022-09-01T22:26:18;3.42;;;1.70;;